Time;durP1;ratioP1;P1;durP2;ratioP2;P2;SDS_P1;SDS_P2;PMS_P1;PMS_P2;Temp;Humidity;BMP_temperature;BMP_pressure;BME280_temperature;BME280_humidity;BME280_pressure;Samples;Min_cycle;Max_cycle;Signal;HPM_P1;HPM_P2
2022/01/29 00:02:00;;;;;;;15.73;3.17;;;;;;;25.57;36.71;95663.66;4902867;29;20042;-80
2022/01/29 00:04:25;;;;;;;13.85;3.03;;;;;;;25.53;36.65;95665.22;4910940;29;20033;-79
2022/01/29 00:06:51;;;;;;;18.02;3.50;;;;;;;25.55;36.72;95657.75;4919530;29;20044;-80
2022/01/29 00:09:16;;;;;;;13.85;3.28;;;;;;;25.58;36.76;95654.59;4913424;29;20061;-80
2022/01/29 00:11:45;;;;;;;15.13;2.92;;;;;;;25.54;36.57;95662.28;4944088;28;20039;-80
2022/01/29 00:14:15;;;;;;;15.18;3.30;;;;;;;25.50;36.64;95647.09;4920487;29;20119;-80
2022/01/29 00:16:44;;;;;;;;;;;;;;;26.01;36.02;95641.09;4916692;29;20036;-81
2022/01/29 00:19:09;;;;;;;17.25;3.17;;;;;;;25.61;36.42;95632.75;4929331;29;19970;-80
2022/01/29 00:21:37;;;;;;;14.02;3.15;;;;;;;25.56;36.79;95630.06;4929386;29;20083;-81
2022/01/29 00:24:02;;;;;;;17.67;3.38;;;;;;;25.57;36.81;95623.69;4897034;29;20028;-81
2022/01/29 00:26:28;;;;;;;16.58;3.10;;;;;;;25.59;36.74;95626.06;4931616;29;20092;-81
2022/01/29 00:28:55;;;;;;;15.48;3.05;;;;;;;25.56;36.56;95619.41;4930475;29;20095;-81
2022/01/29 00:31:22;;;;;;;14.73;3.22;;;;;;;25.53;36.29;95622.59;4916087;29;20031;-81
2022/01/29 00:33:48;;;;;;;16.80;3.30;;;;;;;25.52;36.72;95629.78;4903374;29;20296;-80
2022/01/29 00:36:13;;;;;;;11.95;3.13;;;;;;;25.54;36.61;95617.00;4885165;29;20061;-80
2022/01/29 00:38:39;;;;;;;17.70;3.33;;;;;;;25.50;36.51;95613.28;4909839;29;20083;-79
2022/01/29 00:41:09;;;;;;;11.20;2.90;;;;;;;25.48;36.62;95603.97;4915662;29;20031;-80
2022/01/29 00:43:34;;;;;;;;;;;;;;;26.01;35.82;95595.78;4913533;29;20060;-80
2022/01/29 00:46:00;;;;;;;17.58;2.80;;;;;;;25.66;35.98;95595.47;4912168;29;20025;-81
2022/01/29 00:48:25;;;;;;;10.15;2.85;;;;;;;25.56;36.06;95590.13;4898659;29;20032;-80
2022/01/29 00:50:51;;;;;;;14.25;3.10;;;;;;;25.57;36.24;95594.41;4900934;29;20048;-80
2022/01/29 00:53:18;;;;;;;13.63;3.20;;;;;;;25.56;36.12;95590.13;4918504;29;20020;-80
2022/01/29 00:55:47;;;;;;;18.55;3.30;;;;;;;25.52;36.30;95583.72;4883849;29;20032;-80
2022/01/29 00:58:13;;;;;;;16.00;3.47;;;;;;;25.50;36.32;95583.97;4899739;29;20056;-80
2022/01/29 01:00:38;;;;;;;11.73;2.60;;;;;;;25.52;36.23;95586.38;4899742;29;20028;-81
2022/01/29 01:03:06;;;;;;;10.82;3.00;;;;;;;25.51;36.13;95587.44;4921670;29;20036;-80
2022/01/29 01:05:34;;;;;;;11.80;2.75;;;;;;;25.48;36.48;95587.97;4911228;29;20035;-80
2022/01/29 01:07:59;;;;;;;12.45;2.97;;;;;;;25.48;36.30;95585.31;4895874;29;20110;-80
2022/01/29 01:10:41;;;;;;;16.40;3.90;;;;;;;25.48;36.59;95583.44;4912078;29;20091;-80
2022/01/29 01:13:07;;;;;;;14.52;2.70;;;;;;;25.49;36.49;95578.91;4929770;29;20039;-80
2022/01/29 01:15:35;;;;;;;11.85;2.58;;;;;;;25.50;35.98;95586.66;4915182;29;20028;-81
2022/01/29 01:18:02;;;;;;;19.58;3.05;;;;;;;25.48;36.11;95578.13;4898694;29;20100;-80
2022/01/29 01:20:30;;;;;;;13.98;2.83;;;;;;;25.49;36.05;95584.25;4885676;29;20036;-80
2022/01/29 01:22:55;;;;;;;11.48;2.67;;;;;;;25.46;36.36;95587.44;4895035;29;20027;-80
2022/01/29 01:25:30;;;;;;;14.60;2.80;;;;;;;25.48;36.29;95582.66;4892903;29;20035;-80
2022/01/29 01:27:56;;;;;;;14.43;2.78;;;;;;;25.48;36.17;95588.78;4914369;29;20028;-80
2022/01/29 01:30:22;;;;;;;15.25;3.00;;;;;;;25.45;36.29;95575.19;4903469;29;20036;-80
2022/01/29 01:32:47;;;;;;;13.50;2.78;;;;;;;25.45;36.02;95569.84;4914569;29;20046;-80
2022/01/29 01:35:25;;;;;;;10.07;2.85;;;;;;;25.48;36.35;95575.47;4898863;29;20035;-79
2022/01/29 01:37:56;;;;;;;12.75;2.50;;;;;;;25.47;36.14;95579.16;4903616;29;20111;-80
2022/01/29 01:40:24;;;;;;;14.60;2.72;;;;;;;25.45;36.05;95572.53;4915420;29;20032;-80
2022/01/29 01:42:52;;;;;;;9.45;2.30;;;;;;;25.48;36.13;95575.47;4931122;29;20095;-80
2022/01/29 01:45:17;;;;;;;9.45;2.78;;;;;;;25.45;36.08;95570.66;4914853;29;20082;-80
2022/01/29 01:47:42;;;;;;;10.80;2.67;;;;;;;25.49;35.97;95568.25;4914396;29;20040;-80
2022/01/29 01:50:09;;;;;;;9.95;2.40;;;;;;;25.48;36.05;95559.47;4915189;29;20027;-80
2022/01/29 01:52:34;;;;;;;10.40;2.47;;;;;;;25.47;36.24;95549.09;4925870;29;20039;-81
2022/01/29 01:55:02;;;;;;;11.88;2.95;;;;;;;25.52;35.75;95547.22;4929297;29;20088;-80
2022/01/29 01:57:27;;;;;;;9.60;2.50;;;;;;;25.49;36.10;95542.44;4910446;29;20083;-80
2022/01/29 01:59:55;;;;;;;10.57;2.53;;;;;;;25.51;35.69;95536.84;4913858;29;20040;-80
2022/01/29 02:02:22;;;;;;;9.90;3.13;;;;;;;25.48;36.06;95529.41;4913418;29;20039;-80
2022/01/29 02:04:49;;;;;;;12.93;2.88;;;;;;;25.50;35.87;95524.59;4914476;29;20020;-81
2022/01/29 02:07:14;;;;;;;12.93;2.60;;;;;;;25.48;35.64;95524.06;4929858;29;20047;-80
2022/01/29 02:09:42;;;;;;;7.60;2.25;;;;;;;25.46;35.67;95523.53;4905820;29;20032;-80
2022/01/29 02:12:09;;;;;;;9.43;2.53;;;;;;;25.49;35.97;95518.47;4913476;29;20043;-80
2022/01/29 02:14:38;;;;;;;7.45;2.30;;;;;;;25.48;36.03;95506.22;4899056;29;20420;-79
2022/01/29 02:17:20;;;;;;;11.38;2.30;;;;;;;25.49;36.01;95504.34;4922412;28;20146;-81
2022/01/29 02:19:46;;;;;;;11.98;2.58;;;;;;;25.48;35.63;95502.75;4926795;29;20032;-80
2022/01/29 02:22:11;;;;;;;13.65;2.40;;;;;;;25.47;36.02;95501.16;4912603;29;20139;-80
2022/01/29 02:24:37;;;;;;;7.32;2.50;;;;;;;25.50;35.95;95516.63;4894416;29;20047;-80
2022/01/29 02:27:05;;;;;;;11.65;2.75;;;;;;;25.50;35.53;95508.63;4890912;29;20040;-80
2022/01/29 02:29:44;;;;;;;12.57;2.35;;;;;;;25.47;36.01;95512.59;4903080;29;20122;-80
2022/01/29 02:32:09;;;;;;;9.50;2.83;;;;;;;25.46;35.72;95507.56;4937813;29;20179;-80
2022/01/29 02:34:37;;;;;;;8.63;2.55;;;;;;;25.48;35.58;95502.75;4920322;29;20020;-82
2022/01/29 02:37:05;;;;;;;8.25;2.35;;;;;;;25.45;35.64;95500.63;4906492;29;20039;-80
2022/01/29 02:39:34;;;;;;;10.63;2.58;;;;;;;25.43;35.67;95484.91;4914604;29;20111;-80
2022/01/29 02:41:59;;;;;;;12.38;2.15;;;;;;;25.45;35.59;95488.09;4944982;29;20087;-80
2022/01/29 02:44:36;;;;;;;4.80;2.08;;;;;;;25.42;35.81;95487.81;4888035;29;20037;-80
2022/01/29 02:47:27;;;;;;;9.07;2.15;;;;;;;25.45;35.55;95493.41;4903898;29;20112;-80
2022/01/29 02:49:55;;;;;;;8.75;2.00;;;;;;;25.50;35.61;95496.09;4889041;29;20034;-80
2022/01/29 02:52:20;;;;;;;6.38;2.22;;;;;;;25.47;35.87;95493.16;4882666;29;20086;-80
2022/01/29 02:54:55;;;;;;;8.18;2.00;;;;;;;25.46;35.79;95505.69;4896193;29;20055;-80
2022/01/29 02:57:20;;;;;;;7.95;2.05;;;;;;;25.49;35.78;95504.34;4910366;29;20028;-80
2022/01/29 02:59:46;;;;;;;6.30;2.15;;;;;;;25.45;35.72;95508.59;4896575;29;20036;-80
2022/01/29 03:02:13;;;;;;;8.52;2.10;;;;;;;25.40;35.67;95505.94;4928382;29;20042;-80
2022/01/29 03:04:42;;;;;;;5.85;2.10;;;;;;;25.36;35.69;95511.81;4928965;29;20103;-80
2022/01/29 03:07:07;;;;;;;10.80;2.45;;;;;;;25.47;35.64;95506.47;4882364;29;20024;-80
2022/01/29 03:09:33;;;;;;;8.43;2.15;;;;;;;25.46;35.64;95510.22;4897340;29;20038;-80
2022/01/29 03:12:06;;;;;;;6.90;2.05;;;;;;;25.43;35.66;95500.88;4927340;29;20028;-80
2022/01/29 03:14:32;;;;;;;5.05;1.67;;;;;;;25.46;35.87;95494.25;4932470;29;20075;-81
2022/01/29 03:16:57;;;;;;;7.57;2.10;;;;;;;25.42;35.42;95490.47;4917912;29;20047;-80
2022/01/29 03:19:23;;;;;;;6.80;2.50;;;;;;;25.48;35.42;95492.91;4915361;29;20371;-80
2022/01/29 03:21:48;;;;;;;5.20;1.80;;;;;;;25.47;35.54;95490.50;4933108;28;20031;-80
2022/01/29 03:24:13;;;;;;;5.35;2.00;;;;;;;25.43;35.67;95495.56;4902073;29;20043;-80
2022/01/29 03:26:39;;;;;;;7.05;2.10;;;;;;;25.40;35.56;95492.63;4932930;29;20106;-80
2022/01/29 03:29:06;;;;;;;6.47;2.10;;;;;;;25.44;35.30;95491.06;4917856;29;20067;-80
2022/01/29 03:31:38;;;;;;;5.70;1.83;;;;;;;25.45;35.40;95496.09;4933315;29;20062;-80
2022/01/29 03:34:03;;;;;;;7.57;2.00;;;;;;;25.41;35.75;95491.56;4917742;29;20035;-80
2022/01/29 03:36:28;;;;;;;5.53;1.88;;;;;;;25.41;35.55;95487.03;4916418;29;20151;-81
2022/01/29 03:38:54;;;;;;;4.35;1.80;;;;;;;25.44;35.66;95488.38;4917209;29;20035;-80
2022/01/29 03:41:19;;;;;;;5.70;1.73;;;;;;;25.43;35.25;95489.44;4918155;29;20031;-80
2022/01/29 03:43:48;;;;;;;6.07;1.85;;;;;;;25.42;35.30;95483.31;4911936;29;20034;-80
2022/01/29 03:46:14;;;;;;;7.15;2.20;;;;;;;25.43;35.70;95489.44;4897927;29;20083;-81
2022/01/29 03:48:41;;;;;;;6.28;2.30;;;;;;;25.42;35.59;95485.16;4910127;29;20051;-80
2022/01/29 03:51:07;;;;;;;8.63;2.00;;;;;;;25.41;35.58;95492.34;4896873;29;20024;-80
2022/01/29 03:53:32;;;;;;;5.65;2.17;;;;;;;25.41;35.23;95487.03;4893251;29;20040;-80
2022/01/29 03:55:58;;;;;;;6.30;2.00;;;;;;;25.40;35.52;95488.09;4908787;29;20032;-80
2022/01/29 03:58:25;;;;;;;5.43;2.05;;;;;;;25.41;35.15;95486.25;4911443;29;20044;-80
2022/01/29 04:00:53;;;;;;;4.07;2.00;;;;;;;25.40;35.26;95492.63;4910141;29;20028;-80
2022/01/29 04:03:18;;;;;;;10.50;2.17;;;;;;;25.39;35.37;95501.69;4905599;29;20024;-80
2022/01/29 04:05:44;;;;;;;4.80;1.90;;;;;;;25.41;35.18;95505.66;4894103;29;20107;-80
2022/01/29 04:08:15;;;;;;;6.20;1.92;;;;;;;25.39;35.45;95497.16;4909464;29;20035;-80
2022/01/29 04:10:57;;;;;;;4.45;1.90;;;;;;;25.44;35.10;95493.72;4904214;29;20060;-80
2022/01/29 04:13:27;;;;;;;5.57;1.75;;;;;;;25.41;35.13;95496.88;4898604;29;20083;-80
2022/01/29 04:15:52;;;;;;;4.57;1.50;;;;;;;25.40;35.21;95504.09;4914737;29;20118;-80
2022/01/29 04:18:20;;;;;;;4.00;1.98;;;;;;;25.42;35.26;95514.44;4896605;29;20095;-81
2022/01/29 04:20:46;;;;;;;6.55;1.70;;;;;;;25.39;35.55;95496.34;4897441;29;20062;-81
2022/01/29 04:23:20;;;;;;;5.22;1.92;;;;;;;25.39;35.21;95489.16;4913508;29;20055;-80
2022/01/29 04:25:51;;;;;;;4.90;1.95;;;;;;;25.39;35.30;95491.81;4898215;29;20138;-80
2022/01/29 04:28:17;;;;;;;4.47;1.75;;;;;;;25.36;35.45;95495.81;4914313;29;20035;-80
2022/01/29 04:30:50;;;;;;;6.60;2.00;;;;;;;25.39;34.92;95493.69;4914430;29;20032;-80
2022/01/29 04:35:44;;;;;;;3.90;1.80;;;;;;;25.39;35.20;95499.03;4913306;29;20043;-80
2022/01/29 04:38:13;;;;;;;4.80;1.70;;;;;;;25.36;35.54;95501.16;4928307;29;20032;-81
2022/01/29 04:40:38;;;;;;;4.47;1.70;;;;;;;25.36;34.97;95503.03;4912030;29;20024;-80
2022/01/29 04:43:07;;;;;;;5.90;1.90;;;;;;;25.36;35.20;95495.03;4895021;29;20084;-80
2022/01/29 04:45:34;;;;;;;4.00;1.70;;;;;;;25.34;35.00;95494.47;4898212;29;20032;-80
2022/01/29 04:48:00;;;;;;;5.57;2.47;;;;;;;25.34;34.97;95492.63;4892474;29;20033;-80
2022/01/29 04:50:25;;;;;;;4.50;1.70;;;;;;;25.40;35.37;95495.28;4915390;29;20035;-80
2022/01/29 04:52:53;;;;;;;4.95;1.90;;;;;;;25.35;35.05;95496.88;4905987;29;20060;-80
2022/01/29 04:55:18;;;;;;;3.75;1.58;;;;;;;25.39;35.02;95493.69;4896339;29;20039;-80
2022/01/29 04:57:44;;;;;;;4.32;1.80;;;;;;;25.35;35.30;95485.44;4899583;29;20028;-80
2022/01/29 05:00:19;;;;;;;7.20;1.80;;;;;;;25.30;35.43;95488.06;4901274;29;20032;-80
2022/01/29 05:02:49;;;;;;;5.90;2.00;;;;;;;25.32;35.38;95491.28;4915790;29;20055;-80
2022/01/29 05:05:16;;;;;;;3.85;1.58;;;;;;;25.36;35.28;95482.50;4924452;29;20028;-80
2022/01/29 05:07:44;;;;;;;3.80;1.90;;;;;;;25.33;35.28;95483.03;4904937;29;20047;-80
2022/01/29 05:10:10;;;;;;;4.28;1.70;;;;;;;25.35;35.14;95478.25;4913952;29;20039;-80
2022/01/29 05:12:58;;;;;;;9.38;1.90;;;;;;;25.33;35.05;95474.25;4929818;29;20032;-81
2022/01/29 05:28:50;;;;;;;4.85;1.80;;;;;;;25.32;35.05;95464.66;4926530;29;20050;-80
2022/01/29 05:31:17;;;;;;;5.20;1.65;;;;;;;25.33;35.04;95474.25;4914987;29;20035;-80
2022/01/29 05:33:43;;;;;;;3.28;1.80;;;;;;;25.31;35.00;95477.16;4890505;29;20111;-80
2022/01/29 05:36:08;;;;;;;3.33;1.80;;;;;;;25.32;34.91;95478.78;4890475;29;20039;-81
2022/01/29 05:38:34;;;;;;;5.40;1.92;;;;;;;25.31;35.05;95484.38;4911677;29;20099;-80
2022/01/29 05:41:01;;;;;;;3.70;1.90;;;;;;;25.31;35.17;95482.50;4912144;29;20033;-80
2022/01/29 05:43:27;;;;;;;3.65;1.60;;;;;;;25.28;34.95;95490.22;4930936;29;20032;-80
2022/01/29 05:45:52;;;;;;;3.78;1.80;;;;;;;25.31;34.87;95487.81;4914765;29;20055;-80
2022/01/29 05:48:18;;;;;;;3.55;1.80;;;;;;;25.33;35.09;95484.91;4930785;29;20036;-80
2022/01/29 05:50:43;;;;;;;3.75;1.95;;;;;;;25.32;34.88;95484.13;4883325;29;20031;-80
2022/01/29 05:53:08;;;;;;;4.60;1.98;;;;;;;25.32;35.05;95481.44;4912549;29;20024;-80
2022/01/29 05:55:34;;;;;;;4.68;1.95;;;;;;;25.33;35.28;95480.38;4896698;29;20033;-80
2022/01/29 05:58:01;;;;;;;3.50;1.52;;;;;;;25.35;34.62;95488.09;4914052;29;20024;-80
2022/01/29 06:00:27;;;;;;;5.18;1.73;;;;;;;25.32;34.55;95485.94;4921283;29;20032;-80
2022/01/29 06:03:00;;;;;;;3.40;1.90;;;;;;;25.30;34.80;95488.06;4912334;29;20040;-80
2022/01/29 06:05:25;;;;;;;4.40;1.50;;;;;;;25.30;34.80;95482.75;4912095;29;20064;-80
2022/01/29 06:07:53;;;;;;;4.45;1.70;;;;;;;25.28;34.63;95477.69;4907060;29;20036;-80
2022/01/29 06:10:21;;;;;;;2.75;1.52;;;;;;;25.26;35.00;95474.50;4914347;29;20035;-80
2022/01/29 06:13:06;;;;;;;2.92;1.70;;;;;;;25.35;34.67;95478.25;4897214;29;20039;-80
2022/01/29 06:15:34;;;;;;;5.60;1.70;;;;;;;25.25;34.89;95474.78;4930257;29;20043;-80
2022/01/29 06:17:59;;;;;;;3.70;1.85;;;;;;;25.31;34.72;95476.38;4928333;29;20032;-80
2022/01/29 06:20:27;;;;;;;5.38;1.95;;;;;;;25.30;34.61;95464.94;4913878;29;20039;-81
2022/01/29 06:23:04;;;;;;;4.40;1.88;;;;;;;25.28;34.52;95467.03;4913364;29;20036;-81
2022/01/29 06:25:30;;;;;;;7.13;1.77;;;;;;;25.31;34.12;95466.53;4913981;29;20074;-83
2022/01/29 06:27:55;;;;;;;3.70;1.80;;;;;;;25.28;33.96;95463.59;4912617;29;20091;-82
2022/01/29 06:30:28;;;;;;;5.07;1.88;;;;;;;25.29;33.36;95473.97;4894183;29;20087;-82
2022/01/29 06:32:53;;;;;;;3.67;2.05;;;;;;;25.32;32.87;95464.66;4877141;29;20060;-82
2022/01/29 06:35:19;;;;;;;5.15;2.10;;;;;;;25.28;32.88;95464.38;4931831;29;20035;-82
2022/01/29 06:37:53;;;;;;;5.20;2.10;;;;;;;25.29;32.80;95463.31;4914623;29;20114;-80
2022/01/29 06:40:19;;;;;;;3.25;1.90;;;;;;;25.25;32.53;95462.25;4932992;29;20020;-81
2022/01/29 06:42:44;;;;;;;5.15;1.90;;;;;;;25.31;32.27;95469.19;4913081;29;20035;-82
2022/01/29 06:45:09;;;;;;;5.25;1.85;;;;;;;25.34;32.41;95474.00;4912476;29;20024;-82
2022/01/29 06:47:44;;;;;;;4.88;2.10;;;;;;;25.32;32.37;95478.78;4914751;29;20036;-82
2022/01/29 06:50:10;;;;;;;4.88;1.90;;;;;;;25.28;32.60;95471.56;4911291;29;20032;-81
2022/01/29 06:52:43;;;;;;;5.25;1.90;;;;;;;25.22;33.02;95486.72;4893910;29;20024;-82
2022/01/29 06:55:09;;;;;;;4.70;1.90;;;;;;;25.22;32.98;95481.38;4911487;29;20032;-81
2022/01/29 06:57:34;;;;;;;4.70;1.75;;;;;;;25.25;32.51;95488.09;4901433;29;20036;-82
2022/01/29 06:59:59;;;;;;;4.60;1.90;;;;;;;25.21;32.60;95486.97;4895019;29;20024;-81
2022/01/29 07:02:25;;;;;;;3.80;1.90;;;;;;;25.22;33.09;95492.03;4913236;29;20099;-81
2022/01/29 07:04:50;;;;;;;6.15;2.17;;;;;;;25.25;32.44;95494.22;4880688;29;20028;-81
2022/01/29 07:07:18;;;;;;;5.03;2.17;;;;;;;25.28;32.59;95500.84;4895566;29;20035;-81
2022/01/29 07:09:46;;;;;;;6.22;2.20;;;;;;;25.31;32.60;95508.31;4897572;29;20028;-81
2022/01/29 07:12:12;;;;;;;4.53;2.08;;;;;;;25.29;32.36;95508.59;4912008;29;20035;-82
2022/01/29 07:14:39;;;;;;;5.63;1.90;;;;;;;25.27;32.25;95513.38;4894397;29;20020;-81
2022/01/29 07:17:11;;;;;;;4.78;2.15;;;;;;;25.24;32.77;95521.88;4926771;29;20028;-82
2022/01/29 07:19:36;;;;;;;6.97;1.90;;;;;;;25.31;32.58;95524.31;4897823;29;20036;-81
2022/01/29 07:22:04;;;;;;;6.40;1.75;;;;;;;25.24;32.51;95511.22;4893597;29;20095;-81
2022/01/29 07:24:31;;;;;;;4.18;1.50;;;;;;;25.19;32.69;95513.88;4896134;29;20028;-83
2022/01/29 07:27:03;;;;;;;11.75;1.90;;;;;;;25.17;33.15;95516.00;4882107;29;20056;-82
2022/01/29 07:29:28;;;;;;;10.60;2.00;;;;;;;25.21;32.73;95517.06;4945725;28;20119;-82
2022/01/29 07:31:55;;;;;;;8.20;2.20;;;;;;;25.26;32.74;95517.09;4896651;29;20038;-82
2022/01/29 07:34:24;;;;;;;8.43;2.08;;;;;;;25.22;32.83;95518.66;4915836;29;20066;-82
2022/01/29 07:36:53;;;;;;;14.05;2.55;;;;;;;25.26;32.35;95522.41;4942240;29;20119;-83
2022/01/29 07:39:19;;;;;;;9.63;2.33;;;;;;;25.27;32.74;95518.69;4914031;29;20035;-82
2022/01/29 07:41:45;;;;;;;10.90;1.90;;;;;;;25.29;32.57;95527.22;4913685;29;20028;-82
2022/01/29 07:44:10;;;;;;;8.80;2.00;;;;;;;25.23;32.80;95522.97;4880704;29;20036;-81
2022/01/29 07:46:36;;;;;;;8.68;2.33;;;;;;;25.24;32.74;95516.56;4925126;29;20024;-82
2022/01/29 07:49:01;;;;;;;12.50;2.10;;;;;;;25.28;32.64;95504.31;4913078;29;20064;-82
2022/01/29 07:51:29;;;;;;;8.65;2.05;;;;;;;25.30;32.91;95494.22;4897981;29;20091;-82
2022/01/29 07:53:54;;;;;;;10.18;2.20;;;;;;;25.30;32.68;95496.88;4898185;29;20035;-82
2022/01/29 07:56:20;;;;;;;9.68;2.10;;;;;;;25.28;32.59;95499.00;4926038;29;20039;-82
2022/01/29 07:58:46;;;;;;;8.98;2.35;;;;;;;25.25;32.59;95498.75;4879951;29;20065;-82
2022/01/29 08:01:13;;;;;;;14.48;2.42;;;;;;;25.24;33.08;95503.25;4910275;29;20028;-82
2022/01/29 08:03:38;;;;;;;15.55;2.55;;;;;;;25.22;33.16;95502.69;4896249;29;20032;-82
2022/01/29 08:06:03;;;;;;;13.02;2.33;;;;;;;25.22;33.01;95501.88;4910668;29;20024;-82
2022/01/29 08:08:29;;;;;;;11.68;2.40;;;;;;;25.24;32.82;95511.22;4880833;29;20031;-82
2022/01/29 08:10:54;;;;;;;8.90;2.15;;;;;;;25.27;32.84;95499.28;4897167;29;20043;-83
2022/01/29 08:13:22;;;;;;;17.23;2.53;;;;;;;25.24;32.92;95503.25;4880572;29;20039;-82
2022/01/29 08:15:59;;;;;;;12.18;2.47;;;;;;;25.22;33.05;95483.25;4881272;29;20032;-82
2022/01/29 08:18:27;;;;;;;16.00;2.78;;;;;;;25.20;33.28;95472.88;4909488;29;20044;-83
2022/01/29 08:20:54;;;;;;;17.58;2.70;;;;;;;25.22;33.21;95469.94;4914548;29;20281;-82
2022/01/29 08:23:38;;;;;;;13.55;2.85;;;;;;;25.24;33.32;95455.31;4921496;28;20044;-82
2022/01/29 08:26:03;;;;;;;13.15;2.55;;;;;;;25.16;33.64;95466.47;4921267;29;20047;-82
2022/01/29 08:28:29;;;;;;;12.20;2.42;;;;;;;25.12;33.28;95474.19;4917796;29;20044;-82
2022/01/29 08:30:58;;;;;;;11.20;2.10;;;;;;;25.06;33.61;95480.56;4916874;29;20036;-82
2022/01/29 08:33:24;;;;;;;9.70;2.58;;;;;;;25.16;33.34;95509.84;4908683;29;20042;-82
2022/01/29 08:35:59;;;;;;;12.38;2.50;;;;;;;25.13;33.85;95509.56;4918321;29;20032;-81
2022/01/29 08:38:27;;;;;;;7.93;2.20;;;;;;;25.10;33.62;95518.09;4917543;29;20043;-82
2022/01/29 08:41:03;;;;;;;11.00;2.67;;;;;;;25.09;33.90;95513.81;4918749;29;20098;-82
2022/01/29 08:43:28;;;;;;;6.80;2.40;;;;;;;25.12;33.47;95510.66;4916570;29;20187;-81
2022/01/29 08:45:54;;;;;;;10.55;3.35;;;;;;;25.20;32.89;95499.47;4919944;29;20039;-82
2022/01/29 08:48:20;;;;;;;14.30;3.50;;;;;;;25.21;33.20;95506.41;4920147;29;20086;-82
2022/01/29 08:50:51;;;;;;;12.18;3.00;;;;;;;25.22;33.08;95518.66;4916708;29;20060;-82
2022/01/29 08:53:20;;;;;;;9.57;2.40;;;;;;;25.24;33.11;95513.09;4915298;29;20071;-81
2022/01/29 08:55:45;;;;;;;7.68;2.95;;;;;;;25.26;33.79;95511.75;4889015;29;20024;-81
2022/01/29 08:58:11;;;;;;;10.95;2.35;;;;;;;25.33;33.63;95514.97;4902466;29;20083;-82
2022/01/29 09:00:46;;;;;;;8.77;2.67;;;;;;;25.32;33.78;95526.72;4884393;29;20028;-82
2022/01/29 09:03:15;;;;;;;9.63;2.28;;;;;;;25.27;33.67;95517.91;4928664;29;20024;-81
2022/01/29 09:05:47;;;;;;;6.35;2.00;;;;;;;25.26;34.20;95527.75;4898707;29;20064;-82
2022/01/29 09:08:13;;;;;;;11.23;2.22;;;;;;;25.25;34.13;95526.16;4913842;29;20054;-82
2022/01/29 09:10:39;;;;;;;9.68;2.10;;;;;;;25.27;33.85;95518.69;4915094;29;20028;-82
2022/01/29 09:13:04;;;;;;;9.98;2.40;;;;;;;25.27;34.14;95513.38;4915811;29;20531;-83
2022/01/29 09:15:32;;;;;;;9.23;2.17;;;;;;;25.26;34.37;95514.44;4952596;28;20035;-82
2022/01/29 09:17:57;;;;;;;7.32;1.90;;;;;;;25.25;34.00;95506.72;4953357;28;20054;-82
2022/01/29 09:20:22;;;;;;;7.47;2.00;;;;;;;25.26;34.39;95501.13;4954606;28;20031;-82
2022/01/29 09:22:48;;;;;;;7.13;2.33;;;;;;;25.28;34.38;95503.53;4963229;28;20027;-82
2022/01/29 09:25:22;;;;;;;5.10;1.92;;;;;;;25.25;34.61;95520.81;4936150;29;20033;-82
2022/01/29 09:27:48;;;;;;;4.70;2.10;;;;;;;25.27;34.12;95533.88;4953226;29;20049;-82
2022/01/29 09:30:13;;;;;;;6.50;1.90;;;;;;;25.24;34.29;95527.19;4936679;28;20045;-82
2022/01/29 09:32:41;;;;;;;6.72;2.20;;;;;;;25.19;34.75;95527.19;4937981;29;20035;-81
2022/01/29 09:35:07;;;;;;;5.95;2.08;;;;;;;25.25;34.60;95531.47;4938074;28;20034;-82
2022/01/29 09:37:33;;;;;;;7.03;2.15;;;;;;;25.23;34.70;95530.94;4918213;29;20039;-81
2022/01/29 09:39:58;;;;;;;5.97;1.80;;;;;;;25.22;34.61;95529.31;4951124;28;20039;-82
2022/01/29 09:42:24;;;;;;;11.40;2.35;;;;;;;25.23;34.87;95533.59;4936498;29;20035;-82
2022/01/29 09:44:55;;;;;;;6.03;1.90;;;;;;;25.22;34.82;95526.63;4919796;29;20035;-82
2022/01/29 09:47:22;;;;;;;6.13;2.33;;;;;;;25.25;34.68;95533.34;4949804;29;20027;-81
2022/01/29 09:49:50;;;;;;;7.60;2.45;;;;;;;25.26;34.36;95543.72;4936109;28;20027;-82
2022/01/29 09:52:15;;;;;;;6.00;2.00;;;;;;;25.27;34.43;95549.84;4917674;29;20028;-80
2022/01/29 09:54:41;;;;;;;13.07;2.50;;;;;;;25.31;34.51;95561.56;4936925;29;20042;-80
2022/01/29 09:57:06;;;;;;;8.07;2.40;;;;;;;25.33;34.09;95560.25;4921518;29;20054;-80
2022/01/29 09:59:32;;;;;;;6.68;2.58;;;;;;;25.30;34.17;95563.44;4946177;28;20031;-81
2022/01/29 10:01:57;;;;;;;9.20;2.15;;;;;;;25.29;34.22;95564.50;4948199;29;20034;-80
2022/01/29 10:04:24;;;;;;;6.85;2.03;;;;;;;25.33;34.41;95562.91;4932546;29;20043;-81
2022/01/29 10:07:33;;;;;;;7.25;2.30;;;;;;;25.42;34.03;95563.22;4952032;28;20031;-81
2022/01/29 10:10:01;;;;;;;7.28;2.30;;;;;;;25.28;33.94;95554.91;4908235;29;20060;-81
2022/01/29 10:12:29;;;;;;;8.70;2.63;;;;;;;25.32;33.95;95549.84;4908010;29;20123;-81
2022/01/29 10:14:55;;;;;;;8.38;2.50;;;;;;;25.30;34.10;95554.63;4911929;29;20020;-80
2022/01/29 10:17:48;;;;;;;8.20;2.40;;;;;;;25.32;34.24;95549.84;4896559;29;20048;-80
2022/01/29 10:20:16;;;;;;;8.20;2.33;;;;;;;25.28;33.96;95549.56;4895619;29;20075;-80
2022/01/29 10:23:02;;;;;;;7.55;2.10;;;;;;;25.30;33.83;95549.31;4914109;29;20139;-80
2022/01/29 10:25:29;;;;;;;11.95;2.15;;;;;;;25.35;34.16;95542.13;4872841;29;20060;-80
2022/01/29 10:32:02;;;;;;;5.28;4.78;;;;;;;23.05;25.56;95622.75;5039021;28;20401;-61
2022/01/29 10:34:29;;;;;;;5.72;4.82;;;;;;;22.65;25.30;95630.69;5023978;28;20087;-61
2022/01/29 10:37:17;;;;;;;7.38;5.78;;;;;;;22.42;25.42;95625.56;5020082;28;20124;-61
2022/01/29 10:40:34;;;;;;;8.07;6.38;;;;;;;22.12;25.13;95625.88;5034579;28;20061;-62
2022/01/29 10:42:59;;;;;;;7.28;6.20;;;;;;;21.90;25.78;95615.97;4954856;28;20050;-63
2022/01/29 10:45:33;;;;;;;7.68;6.00;;;;;;;21.69;25.75;95608.72;4920611;28;20051;-61
2022/01/29 10:48:09;;;;;;;7.68;6.57;;;;;;;21.54;25.67;95604.75;4921827;28;20064;-62
2022/01/29 10:50:34;;;;;;;7.72;6.18;;;;;;;21.44;25.73;95605.38;4930285;29;20039;-62
2022/01/29 10:53:27;;;;;;;7.47;6.45;;;;;;;21.39;26.08;95610.53;4893455;28;20039;-61
2022/01/29 10:56:08;;;;;;;8.45;6.38;;;;;;;21.25;25.92;95599.44;4926535;28;20035;-64
2022/01/29 10:58:40;;;;;;;;;;;;;;;21.66;26.09;95591.47;4919219;29;20044;-65
2022/01/29 11:01:19;;;;;;;7.80;5.28;;;;;;;21.25;26.56;95596.00;4932225;28;19925;-61
2022/01/29 11:03:44;;;;;;;7.25;6.20;;;;;;;21.08;26.05;95602.00;4924358;28;20055;-73
2022/01/29 11:06:12;;;;;;;7.25;6.40;;;;;;;20.97;25.57;95597.56;4885639;29;20032;-73
2022/01/29 11:08:46;;;;;;;6.75;6.05;;;;;;;20.93;25.36;95592.97;4904931;29;20076;-73
2022/01/29 11:11:11;;;;;;;7.50;6.70;;;;;;;20.94;25.61;95590.06;4917578;29;20036;-72
2022/01/29 11:13:37;;;;;;;7.57;6.15;;;;;;;20.97;25.02;95594.13;4904716;29;20036;-72
2022/01/29 11:16:03;;;;;;;7.55;5.85;;;;;;;21.00;24.64;95606.84;4908860;28;20047;-72
2022/01/29 11:18:28;;;;;;;7.63;6.00;;;;;;;20.98;24.66;95601.81;4942738;28;20027;-72
2022/01/29 11:20:54;;;;;;;7.13;5.70;;;;;;;20.99;24.29;95598.13;4930653;28;20218;-72
2022/01/29 11:23:20;;;;;;;7.75;6.00;;;;;;;21.00;24.30;95594.44;4929838;28;20042;-72
2022/01/29 11:25:45;;;;;;;6.75;5.53;;;;;;;20.99;24.37;95590.19;4931162;28;20035;-72
2022/01/29 11:28:22;;;;;;;7.50;6.22;;;;;;;20.98;24.22;95590.41;4953384;28;20035;-72
2022/01/29 11:31:13;;;;;;;7.63;6.50;;;;;;;21.06;23.55;95593.50;4926980;28;20027;-71
2022/01/29 11:34:07;;;;;;;7.78;6.40;;;;;;;21.06;23.75;95584.78;4961565;28;20050;-71
2022/01/29 11:36:48;;;;;;;8.15;6.82;;;;;;;20.98;23.70;95585.94;4949265;28;20066;-71
2022/01/29 11:39:29;;;;;;;6.15;5.07;;;;;;;20.91;24.08;95571.25;4938236;28;20040;-68
2022/01/29 11:42:12;;;;;;;7.80;6.82;;;;;;;20.85;24.17;95570.34;4935734;28;20043;-68
2022/01/29 11:44:40;;;;;;;8.98;7.25;;;;;;;20.90;23.65;95567.78;4931024;29;20040;-68
2022/01/29 11:47:25;;;;;;;8.68;7.07;;;;;;;21.06;23.28;95566.25;4945424;28;20031;-68
2022/01/29 11:49:51;;;;;;;8.05;6.93;;;;;;;21.08;22.83;95564.19;4928847;29;20047;-69
2022/01/29 11:52:21;;;;;;;7.70;6.90;;;;;;;21.11;23.00;95557.63;4916304;29;20296;-68
2022/01/29 11:55:06;;;;;;;7.97;7.03;;;;;;;21.26;22.47;95550.75;4926811;29;20039;-68
2022/01/29 11:57:31;;;;;;;6.90;6.20;;;;;;;21.24;22.00;95552.03;4914191;29;20082;-69
2022/01/29 12:00:03;;;;;;;6.70;5.70;;;;;;;21.29;22.15;95544.22;4921420;29;20047;-68